Time;durP1;ratioP1;P1;durP2;ratioP2;P2;SDS_P1;SDS_P2;PMS_P1;PMS_P2;Temp;Humidity;BMP_temperature;BMP_pressure;BME280_temperature;BME280_humidity;BME280_pressure;Samples;Min_cycle;Max_cycle;Signal;HPM_P1;HPM_P2
2021/09/08 00:01:04;;;;;;;10.25;8.70;;;14.30;72.20;;;;;;5001550;28;20033;-69
2021/09/08 00:03:30;;;;;;;10.85;9.18;;;14.30;72.30;;;;;;5002357;28;20053;-69
2021/09/08 00:05:55;;;;;;;10.48;8.50;;;14.30;72.10;;;;;;4999004;28;20077;-69
2021/09/08 00:08:21;;;;;;;11.10;9.05;;;14.30;72.10;;;;;;4998633;28;20104;-69
2021/09/08 00:10:47;;;;;;;12.63;9.07;;;14.30;72.10;;;;;;4999613;28;20049;-69
2021/09/08 00:13:13;;;;;;;11.73;8.75;;;14.20;72.10;;;;;;5000597;28;20034;-70
2021/09/08 00:15:39;;;;;;;10.68;8.38;;;14.30;72.20;;;;;;4999859;28;20089;-70
2021/09/08 00:18:05;;;;;;;10.73;8.57;;;14.20;72.00;;;;;;4999233;28;20125;-69
2021/09/08 00:20:30;;;;;;;11.57;8.60;;;14.20;72.00;;;;;;5001108;28;20080;-70
2021/09/08 00:22:57;;;;;;;12.15;8.75;;;14.20;72.10;;;;;;4996379;28;20056;-69
2021/09/08 00:25:22;;;;;;;10.10;8.80;;;14.20;72.10;;;;;;5000552;28;20100;-69
2021/09/08 00:27:48;;;;;;;10.77;8.70;;;14.20;72.10;;;;;;5000704;28;20058;-70
2021/09/08 00:30:14;;;;;;;12.55;9.40;;;14.30;72.00;;;;;;5000049;28;20042;-69
2021/09/08 00:32:41;;;;;;;11.25;9.27;;;14.20;71.80;;;;;;4998103;28;20037;-69
2021/09/08 00:35:07;;;;;;;9.88;8.48;;;14.20;72.80;;;;;;4998243;28;20041;-69
2021/09/08 00:37:35;;;;;;;12.35;9.13;;;14.20;72.00;;;;;;4997370;28;20034;-69
2021/09/08 00:40:01;;;;;;;10.50;9.32;;;14.20;71.80;;;;;;4997831;28;20033;-69
2021/09/08 00:42:26;;;;;;;11.05;9.30;;;14.10;72.70;;;;;;4997841;28;20025;-70
2021/09/08 00:44:52;;;;;;;11.70;9.30;;;14.10;72.00;;;;;;4997044;28;20381;-69
2021/09/08 00:47:18;;;;;;;11.35;9.18;;;14.10;72.00;;;;;;4997536;28;20037;-69
2021/09/08 00:49:45;;;;;;;10.68;8.73;;;14.10;72.00;;;;;;5000517;28;20067;-69
2021/09/08 00:52:12;;;;;;;11.75;8.90;;;14.10;71.90;;;;;;4999929;28;20057;-69
2021/09/08 00:54:38;;;;;;;10.23;8.50;;;14.10;71.60;;;;;;4998583;28;20498;-69
2021/09/08 00:57:06;;;;;;;11.20;9.25;;;14.10;71.60;;;;;;4998469;28;20037;-69
2021/09/08 00:59:33;;;;;;;11.43;8.65;;;14.10;71.80;;;;;;4999562;28;20615;-70
2021/09/08 01:02:00;;;;;;;11.20;9.23;;;14.10;71.70;;;;;;4998581;28;20045;-69
2021/09/08 01:04:27;;;;;;;12.23;9.73;;;14.10;71.70;;;;;;4999297;28;20073;-69
2021/09/08 01:06:53;;;;;;;13.88;10.43;;;14.00;71.70;;;;;;4997582;28;20029;-69
2021/09/08 01:09:19;;;;;;;15.43;11.43;;;14.10;72.10;;;;;;4999092;28;20419;-69
2021/09/08 01:11:45;;;;;;;13.05;11.10;;;14.10;72.60;;;;;;4997677;28;20034;-68
2021/09/08 01:14:10;;;;;;;15.02;10.60;;;14.10;73.00;;;;;;4997579;28;20038;-69
2021/09/08 01:16:36;;;;;;;13.43;10.70;;;14.10;72.80;;;;;;4998762;28;21606;-69
2021/09/08 01:19:01;;;;;;;12.43;10.13;;;14.10;72.60;;;;;;4999361;28;20534;-70
2021/09/08 01:21:27;;;;;;;12.93;9.98;;;14.20;72.30;;;;;;5001590;28;20045;-70
2021/09/08 01:23:53;;;;;;;12.82;9.95;;;14.20;72.10;;;;;;4997767;28;20056;-69
2021/09/08 01:26:18;;;;;;;12.68;10.43;;;14.20;72.00;;;;;;4998853;28;20666;-69
2021/09/08 01:28:44;;;;;;;13.68;10.43;;;14.10;71.80;;;;;;4998956;28;20132;-69
2021/09/08 01:31:09;;;;;;;13.75;10.63;;;14.10;71.80;;;;;;4998865;28;20042;-69
2021/09/08 01:33:35;;;;;;;12.25;9.88;;;14.00;71.70;;;;;;4998337;28;20096;-69
2021/09/08 01:36:03;;;;;;;12.95;10.70;;;14.00;71.80;;;;;;4998998;28;20057;-69
2021/09/08 01:38:28;;;;;;;14.85;10.52;;;14.00;72.00;;;;;;4998212;28;20096;-70
2021/09/08 01:40:54;;;;;;;13.77;11.07;;;14.00;71.90;;;;;;4997561;28;20034;-69
2021/09/08 01:43:26;;;;;;;14.23;10.35;;;13.90;71.70;;;;;;4994451;28;20049;-70
2021/09/08 01:45:52;;;;;;;12.00;10.25;;;13.90;72.00;;;;;;4998232;28;20175;-69
2021/09/08 01:48:18;;;;;;;13.75;10.90;;;13.90;71.60;;;;;;4997677;28;20039;-69
2021/09/08 01:50:44;;;;;;;15.80;10.95;;;13.80;71.70;;;;;;4999128;28;20049;-69
2021/09/08 01:53:10;;;;;;;13.60;11.27;;;13.80;71.80;;;;;;4998051;28;20034;-69
2021/09/08 01:55:36;;;;;;;15.10;11.65;;;13.80;71.90;;;;;;4998969;28;20696;-70
2021/09/08 01:58:01;;;;;;;14.75;11.45;;;13.70;72.80;;;;;;4998998;28;20038;-69
2021/09/08 02:00:29;;;;;;;15.13;11.48;;;13.70;72.00;;;;;;5000355;28;20520;-68
2021/09/08 02:02:54;;;;;;;13.95;11.75;;;13.60;72.00;;;;;;4998383;28;20029;-69
2021/09/08 02:05:20;;;;;;;14.50;11.63;;;13.60;72.20;;;;;;4999029;28;20038;-69
2021/09/08 02:07:46;;;;;;;14.95;12.07;;;13.60;72.30;;;;;;5003727;28;20061;-69
2021/09/08 02:10:12;;;;;;;15.60;12.50;;;13.50;72.40;;;;;;4998091;28;20124;-69
2021/09/08 02:12:38;;;;;;;17.42;12.57;;;13.50;72.50;;;;;;4996287;28;20108;-69
2021/09/08 02:15:06;;;;;;;16.15;12.95;;;13.40;72.60;;;;;;5014921;28;20066;-69
2021/09/08 02:17:32;;;;;;;14.77;12.05;;;13.40;72.80;;;;;;5013428;28;20124;-69
2021/09/08 02:19:58;;;;;;;17.67;13.50;;;13.40;72.70;;;;;;5000048;28;20037;-69
2021/09/08 02:22:23;;;;;;;15.65;12.35;;;13.40;72.90;;;;;;5003378;28;20033;-69
2021/09/08 02:24:49;;;;;;;15.13;11.68;;;13.30;73.00;;;;;;4997486;28;20402;-69
2021/09/08 02:27:15;;;;;;;14.90;11.95;;;13.30;73.00;;;;;;4999132;28;20034;-70
2021/09/08 02:29:40;;;;;;;17.30;12.73;;;13.30;73.00;;;;;;5003179;28;20072;-69
2021/09/08 02:32:06;;;;;;;15.00;12.05;;;13.20;73.00;;;;;;4998739;28;20034;-69
2021/09/08 02:34:32;;;;;;;17.45;12.68;;;13.20;73.30;;;;;;5000028;28;20045;-69
2021/09/08 02:37:00;;;;;;;16.65;12.55;;;13.20;73.50;;;;;;4998669;28;20114;-69
2021/09/08 02:39:26;;;;;;;15.52;11.77;;;13.20;73.60;;;;;;5000054;28;20069;-70
2021/09/08 02:41:51;;;;;;;18.33;12.27;;;13.30;74.50;;;;;;4997479;28;20149;-68
2021/09/08 02:44:17;;;;;;;16.77;13.55;;;13.30;73.70;;;;;;4997099;28;20465;-68
2021/09/08 02:46:43;;;;;;;18.73;13.23;;;13.30;73.70;;;;;;4997531;28;20148;-69
2021/09/08 02:49:10;;;;;;;16.67;13.57;;;13.30;73.50;;;;;;5013399;28;20552;-69
2021/09/08 02:51:35;;;;;;;16.25;12.35;;;13.40;73.40;;;;;;4998018;28;20604;-69
2021/09/08 02:54:01;;;;;;;16.67;12.65;;;13.40;73.20;;;;;;4997788;28;20046;-69
2021/09/08 02:56:27;;;;;;;15.40;12.65;;;13.40;73.20;;;;;;4997103;28;20030;-69
2021/09/08 02:58:52;;;;;;;17.70;13.35;;;13.40;73.00;;;;;;5001036;28;20038;-69
2021/09/08 03:01:18;;;;;;;17.65;12.43;;;13.30;73.00;;;;;;5000460;28;20068;-68
2021/09/08 03:03:44;;;;;;;17.42;12.98;;;13.30;73.00;;;;;;5002005;28;20053;-69
2021/09/08 03:06:09;;;;;;;18.20;12.23;;;13.20;73.00;;;;;;5003610;28;20084;-70
2021/09/08 03:08:35;;;;;;;17.08;12.40;;;13.10;73.00;;;;;;4999899;28;20040;-69
2021/09/08 03:11:01;;;;;;;16.45;12.80;;;13.10;73.00;;;;;;4998812;28;20061;-69
2021/09/08 03:13:26;;;;;;;16.63;12.35;;;13.10;73.20;;;;;;4999543;28;20124;-69
2021/09/08 03:15:52;;;;;;;18.08;12.45;;;13.00;73.30;;;;;;5002301;28;20121;-67
2021/09/08 03:18:17;;;;;;;17.88;12.70;;;13.00;73.30;;;;;;5000661;28;20042;-69
2021/09/08 03:20:43;;;;;;;18.77;12.80;;;13.00;73.30;;;;;;5000094;28;20038;-69
2021/09/08 03:23:09;;;;;;;16.75;12.52;;;13.00;73.30;;;;;;4999969;28;20061;-68
2021/09/08 03:25:35;;;;;;;16.00;12.43;;;13.00;73.30;;;;;;5001790;28;20105;-69
2021/09/08 03:28:00;;;;;;;17.27;12.82;;;13.00;73.30;;;;;;4999190;28;20088;-69
2021/09/08 03:30:26;;;;;;;15.80;12.57;;;13.00;73.30;;;;;;5001969;28;20037;-70
2021/09/08 03:32:52;;;;;;;18.75;14.40;;;13.00;73.30;;;;;;5001408;28;20104;-69
2021/09/08 03:35:18;;;;;;;16.45;13.25;;;13.00;73.40;;;;;;5003851;28;20497;-69
2021/09/08 03:37:43;;;;;;;18.65;13.63;;;12.90;73.30;;;;;;4999336;28;20057;-69
2021/09/08 03:40:10;;;;;;;18.90;13.98;;;12.90;73.30;;;;;;5000516;28;20501;-68
2021/09/08 03:42:36;;;;;;;17.35;14.23;;;12.90;73.50;;;;;;4999224;28;20046;-68
2021/09/08 03:45:05;;;;;;;17.35;13.68;;;12.90;73.50;;;;;;5000944;28;20085;-69
2021/09/08 03:47:31;;;;;;;18.33;14.43;;;12.90;73.70;;;;;;5015199;28;20040;-69
2021/09/08 03:49:56;;;;;;;18.27;14.00;;;12.90;73.80;;;;;;4999915;28;20038;-69
2021/09/08 03:52:22;;;;;;;16.58;13.05;;;12.90;73.80;;;;;;4998593;28;20508;-69
2021/09/08 03:54:47;;;;;;;15.75;12.45;;;12.90;73.70;;;;;;5000381;28;20038;-69
2021/09/08 03:57:13;;;;;;;18.75;13.23;;;12.90;73.60;;;;;;4997313;28;20109;-69
2021/09/08 03:59:39;;;;;;;17.17;13.52;;;13.00;73.50;;;;;;4999063;28;20042;-69
2021/09/08 04:02:05;;;;;;;18.98;13.43;;;13.00;73.40;;;;;;4998564;28;20031;-70
2021/09/08 04:04:31;;;;;;;19.20;13.98;;;13.00;74.10;;;;;;5001848;28;20033;-70
2021/09/08 04:06:57;;;;;;;17.05;12.43;;;12.90;73.00;;;;;;5001700;28;20034;-68
2021/09/08 04:09:22;;;;;;;17.10;13.88;;;12.90;73.10;;;;;;4998341;28;20037;-69
2021/09/08 04:11:48;;;;;;;16.42;12.98;;;12.90;73.30;;;;;;4997224;28;20446;-68
2021/09/08 04:14:14;;;;;;;18.30;13.63;;;12.90;73.30;;;;;;5001221;28;20036;-70
2021/09/08 04:16:39;;;;;;;19.45;14.23;;;12.90;73.30;;;;;;4999919;28;20523;-69
2021/09/08 04:19:05;;;;;;;21.08;14.52;;;12.80;73.30;;;;;;4997005;28;20041;-70
2021/09/08 04:21:31;;;;;;;18.13;13.82;;;12.80;73.30;;;;;;5000340;28;20038;-68
2021/09/08 04:23:57;;;;;;;20.33;14.65;;;12.80;73.30;;;;;;4998494;28;20180;-69
2021/09/08 04:26:23;;;;;;;21.80;15.27;;;12.70;73.50;;;;;;4999583;28;20474;-69
2021/09/08 04:28:49;;;;;;;20.48;15.18;;;12.70;73.60;;;;;;5003274;28;20053;-68
2021/09/08 04:31:15;;;;;;;20.55;15.80;;;12.60;73.70;;;;;;4997292;28;20520;-68
2021/09/08 04:33:41;;;;;;;22.00;14.60;;;12.60;73.80;;;;;;5001236;28;20038;-69
2021/09/08 04:36:06;;;;;;;17.60;14.38;;;12.60;73.90;;;;;;5000250;28;20042;-69
2021/09/08 04:38:32;;;;;;;17.88;14.25;;;12.60;74.00;;;;;;4998463;28;20061;-68
2021/09/08 04:40:58;;;;;;;18.95;13.63;;;12.50;74.00;;;;;;4998423;28;20113;-69
2021/09/08 04:43:23;;;;;;;18.95;14.23;;;12.50;74.00;;;;;;4998969;28;20068;-70
2021/09/08 04:45:49;;;;;;;18.27;13.68;;;12.50;74.10;;;;;;4998028;28;20061;-69
2021/09/08 04:48:15;;;;;;;19.08;14.27;;;12.50;74.10;;;;;;4998888;28;20535;-69
2021/09/08 04:50:40;;;;;;;19.15;14.73;;;12.50;74.00;;;;;;5004742;28;20146;-70
2021/09/08 04:53:07;;;;;;;21.38;15.23;;;12.50;74.00;;;;;;4999163;28;20528;-68
2021/09/08 04:55:32;;;;;;;20.48;14.70;;;12.50;74.00;;;;;;5000724;28;20038;-69
2021/09/08 04:57:58;;;;;;;21.65;15.15;;;12.40;73.90;;;;;;5000275;28;20031;-70
2021/09/08 05:00:24;;;;;;;20.52;14.43;;;12.40;74.00;;;;;;5000031;28;20034;-70
2021/09/08 05:02:49;;;;;;;20.42;15.00;;;12.30;74.40;;;;;;5004021;28;20046;-69
2021/09/08 05:05:15;;;;;;;20.23;14.35;;;12.20;74.70;;;;;;5000014;28;20079;-70
2021/09/08 05:07:41;;;;;;;22.20;15.65;;;12.20;74.90;;;;;;5005001;28;20044;-69
2021/09/08 05:10:07;;;;;;;21.92;15.82;;;12.20;75.10;;;;;;4999647;28;20039;-68
2021/09/08 05:12:33;;;;;;;22.67;16.60;;;12.20;75.30;;;;;;4999363;28;20041;-70
2021/09/08 05:15:00;;;;;;;22.80;16.15;;;12.20;75.40;;;;;;4999455;28;20168;-69
2021/09/08 05:17:26;;;;;;;21.80;15.82;;;12.20;75.40;;;;;;5001013;28;20038;-69
2021/09/08 05:19:52;;;;;;;22.10;15.38;;;12.20;75.50;;;;;;4999925;28;20550;-69
2021/09/08 05:22:17;;;;;;;22.77;16.90;;;12.20;75.60;;;;;;5000047;28;20062;-70
2021/09/08 05:24:43;;;;;;;21.45;16.05;;;12.20;75.60;;;;;;5000252;28;20084;-69
2021/09/08 05:27:08;;;;;;;23.35;16.00;;;12.20;75.80;;;;;;5000306;28;20121;-69
2021/09/08 05:29:34;;;;;;;21.42;15.80;;;12.20;76.00;;;;;;5000221;28;20038;-70
2021/09/08 05:32:00;;;;;;;18.65;14.70;;;12.20;76.10;;;;;;4999536;28;20516;-68
2021/09/08 05:34:25;;;;;;;27.25;16.27;;;12.20;76.20;;;;;;4998186;28;20566;-68
2021/09/08 05:36:51;;;;;;;22.73;15.45;;;12.20;76.40;;;;;;4999310;28;20126;-69
2021/09/08 05:39:17;;;;;;;22.70;16.70;;;12.20;76.60;;;;;;4999552;28;20070;-69
2021/09/08 05:41:43;;;;;;;26.60;16.88;;;12.30;76.80;;;;;;4999402;28;20046;-69
2021/09/08 05:44:08;;;;;;;19.45;15.48;;;12.30;76.90;;;;;;4998681;28;20113;-68
2021/09/08 05:46:34;;;;;;;21.98;16.15;;;12.30;77.90;;;;;;4999146;28;20069;-68
2021/09/08 05:48:59;;;;;;;25.60;17.55;;;12.30;77.20;;;;;;4998916;28;20496;-68
2021/09/08 05:51:25;;;;;;;22.73;16.52;;;12.30;77.30;;;;;;4998984;28;20260;-69
2021/09/08 05:53:50;;;;;;;26.90;16.73;;;12.40;77.60;;;;;;4999280;28;20409;-69
2021/09/08 05:56:16;;;;;;;24.73;17.00;;;12.40;77.70;;;;;;4999502;28;20117;-70
2021/09/08 05:58:42;;;;;;;22.83;17.13;;;12.40;77.90;;;;;;4997368;28;20471;-69
2021/09/08 06:01:07;;;;;;;26.80;17.13;;;12.40;78.00;;;;;;5000280;28;20077;-68
2021/09/08 06:03:33;;;;;;;22.95;16.77;;;12.50;78.20;;;;;;4999061;28;20041;-68
2021/09/08 06:05:58;;;;;;;22.13;15.98;;;12.50;78.40;;;;;;4998275;28;20530;-70
2021/09/08 06:08:24;;;;;;;22.35;15.85;;;12.60;78.60;;;;;;4999052;28;20030;-70
2021/09/08 06:10:50;;;;;;;21.23;16.48;;;12.70;78.70;;;;;;5000113;28;20038;-69
2021/09/08 06:13:16;;;;;;;25.00;17.40;;;12.70;78.90;;;;;;4999214;28;20034;-69
2021/09/08 06:15:42;;;;;;;22.83;16.90;;;12.80;79.10;;;;;;5000127;28;20404;-68
2021/09/08 06:18:08;;;;;;;24.75;17.75;;;12.90;79.40;;;;;;4999610;28;20033;-69
2021/09/08 06:20:34;;;;;;;24.60;17.55;;;13.00;79.60;;;;;;4998888;28;20451;-69
2021/09/08 06:23:00;;;;;;;27.05;19.77;;;13.10;79.90;;;;;;5003964;28;20038;-69
2021/09/08 06:25:26;;;;;;;26.55;19.42;;;13.10;80.30;;;;;;4999942;28;20417;-70
2021/09/08 06:27:52;;;;;;;24.65;18.73;;;13.30;80.70;;;;;;5000067;28;20042;-70
2021/09/08 06:30:18;;;;;;;25.75;18.60;;;13.30;80.80;;;;;;4998536;28;20102;-69
2021/09/08 06:32:43;;;;;;;23.05;17.35;;;13.40;80.80;;;;;;4999999;28;20558;-70
2021/09/08 06:35:10;;;;;;;25.17;18.85;;;13.50;80.80;;;;;;5003182;28;20057;-69
2021/09/08 06:37:36;;;;;;;23.15;18.00;;;13.60;80.80;;;;;;5002994;28;20029;-69
2021/09/08 06:40:02;;;;;;;27.17;18.48;;;13.70;80.70;;;;;;5002806;28;20073;-70
2021/09/08 06:42:27;;;;;;;23.90;16.75;;;13.80;80.60;;;;;;5002124;28;20274;-71
2021/09/08 06:44:53;;;;;;;20.90;17.35;;;13.90;80.60;;;;;;5001620;28;20034;-70
2021/09/08 06:47:23;;;;;;;23.15;17.73;;;13.90;80.60;;;;;;5000081;28;20030;-69
2021/09/08 06:49:50;;;;;;;22.20;17.88;;;14.10;81.00;;;;;;5002385;28;20029;-70
2021/09/08 06:52:16;;;;;;;29.08;18.95;;;14.10;80.80;;;;;;5001995;28;20030;-69
2021/09/08 06:54:42;;;;;;;26.63;18.15;;;14.20;80.90;;;;;;5000686;28;20101;-69
2021/09/08 06:57:09;;;;;;;24.83;17.75;;;14.20;80.60;;;;;;5002455;28;20026;-70
2021/09/08 06:59:35;;;;;;;21.40;16.95;;;14.30;80.60;;;;;;5001806;28;20069;-69
2021/09/08 07:02:01;;;;;;;26.70;18.00;;;14.40;80.90;;;;;;4997873;28;20520;-69
2021/09/08 07:04:27;;;;;;;24.83;17.13;;;14.50;80.50;;;;;;5000329;28;20126;-69
2021/09/08 07:06:53;;;;;;;23.20;17.75;;;14.50;80.30;;;;;;5000949;28;20067;-69
2021/09/08 07:09:18;;;;;;;24.70;18.98;;;14.60;80.40;;;;;;5005707;28;20034;-70
2021/09/08 07:11:44;;;;;;;21.23;17.02;;;14.70;80.50;;;;;;5000712;28;20034;-68
2021/09/08 07:14:10;;;;;;;23.98;17.33;;;14.70;80.10;;;;;;4998885;28;20092;-69
2021/09/08 07:16:36;;;;;;;26.48;18.63;;;14.80;80.00;;;;;;5000768;28;20050;-66
2021/09/08 07:19:02;;;;;;;22.92;17.17;;;14.80;80.30;;;;;;5002020;28;20044;-70
2021/09/08 07:21:27;;;;;;;22.17;17.17;;;14.90;80.00;;;;;;5002104;28;20084;-70
2021/09/08 07:23:53;;;;;;;22.52;16.75;;;15.00;80.10;;;;;;5001830;28;20442;-70
2021/09/08 07:26:19;;;;;;;24.73;17.35;;;15.00;79.90;;;;;;5001581;28;20321;-69
2021/09/08 07:28:44;;;;;;;23.85;16.70;;;15.10;79.90;;;;;;5001604;28;20042;-70
2021/09/08 07:31:10;;;;;;;21.27;16.77;;;15.20;79.80;;;;;;5003061;28;20034;-70
2021/09/08 07:33:36;;;;;;;23.85;16.25;;;15.20;79.80;;;;;;5001299;28;20069;-70
2021/09/08 07:36:01;;;;;;;20.88;15.82;;;15.30;79.70;;;;;;5002553;28;20143;-68
2021/09/08 07:38:27;;;;;;;19.60;14.68;;;15.40;79.40;;;;;;5001816;28;20204;-69
2021/09/08 07:40:53;;;;;;;21.17;15.82;;;15.50;79.10;;;;;;5001891;28;20507;-69
2021/09/08 07:43:19;;;;;;;21.23;15.02;;;15.60;79.00;;;;;;4998912;28;20034;-70
2021/09/08 07:45:45;;;;;;;20.77;16.10;;;15.70;78.80;;;;;;5001950;28;20037;-70
2021/09/08 07:48:11;;;;;;;21.73;16.45;;;15.80;78.90;;;;;;5000716;28;20038;-70
2021/09/08 07:50:37;;;;;;;20.50;16.23;;;15.80;78.90;;;;;;5001740;28;20552;-70
2021/09/08 07:53:08;;;;;;;20.73;16.42;;;15.90;78.80;;;;;;5001747;28;20037;-70
2021/09/08 07:55:35;;;;;;;22.33;15.68;;;16.00;78.70;;;;;;5001550;28;20039;-70
2021/09/08 07:58:01;;;;;;;19.67;15.80;;;16.10;78.30;;;;;;4999651;28;20041;-69
2021/09/08 08:00:26;;;;;;;21.25;15.65;;;16.20;78.30;;;;;;4999246;28;20026;-68
2021/09/08 08:02:52;;;;;;;21.67;16.33;;;16.20;78.20;;;;;;4997212;28;20026;-69
2021/09/08 08:05:19;;;;;;;21.02;15.65;;;16.30;77.90;;;;;;5000996;28;20117;-70
2021/09/08 08:07:46;;;;;;;18.75;14.70;;;16.40;78.60;;;;;;5002113;28;20062;-70
2021/09/08 08:10:15;;;;;;;18.33;14.73;;;16.50;77.60;;;;;;5001366;28;20060;-69
2021/09/08 08:12:40;;;;;;;19.67;14.63;;;16.50;78.20;;;;;;4999907;28;20045;-69
2021/09/08 08:15:08;;;;;;;18.65;15.45;;;16.60;77.00;;;;;;5001609;28;20035;-69
2021/09/08 08:17:33;;;;;;;21.15;15.98;;;16.70;76.70;;;;;;5001246;28;20046;-69
2021/09/08 08:19:59;;;;;;;20.73;15.07;;;16.80;76.70;;;;;;5001066;28;20034;-69
2021/09/08 08:22:25;;;;;;;18.40;14.52;;;16.90;76.80;;;;;;5000345;28;20416;-69
2021/09/08 08:24:51;;;;;;;18.75;15.10;;;16.90;76.50;;;;;;5001055;28;20035;-70
2021/09/08 08:27:17;;;;;;;20.13;15.02;;;17.00;76.50;;;;;;5001758;28;20116;-68
2021/09/08 08:29:42;;;;;;;18.60;14.40;;;17.10;77.00;;;;;;5006070;28;20156;-70
2021/09/08 08:32:08;;;;;;;21.25;17.15;;;17.20;75.90;;;;;;5001408;28;20515;-70
2021/09/08 08:34:34;;;;;;;19.70;16.58;;;17.30;75.80;;;;;;5000312;28;20707;-69
2021/09/08 08:36:59;;;;;;;20.50;15.65;;;17.40;75.60;;;;;;5000662;28;20620;-69
2021/09/08 08:39:25;;;;;;;18.67;14.77;;;17.40;75.30;;;;;;5000856;28;20049;-69
2021/09/08 08:41:51;;;;;;;17.77;13.73;;;17.50;75.80;;;;;;4999285;28;20073;-68
2021/09/08 08:44:22;;;;;;;15.27;13.00;;;17.50;75.40;;;;;;4999043;28;20147;-70
2021/09/08 08:46:52;;;;;;;17.73;14.48;;;17.60;75.20;;;;;;5000516;28;20117;-69
2021/09/08 08:49:20;;;;;;;19.67;15.45;;;17.70;74.90;;;;;;5001157;28;20037;-70
2021/09/08 08:51:49;;;;;;;20.98;15.65;;;17.80;74.90;;;;;;4999545;28;20449;-70
2021/09/08 08:54:15;;;;;;;16.67;13.85;;;17.90;74.70;;;;;;4997229;28;20038;-69
2021/09/08 08:56:40;;;;;;;19.00;14.93;;;18.00;74.70;;;;;;4998187;28;20101;-70
2021/09/08 08:59:06;;;;;;;18.38;14.02;;;18.00;74.60;;;;;;4998592;28;20037;-69
2021/09/08 09:01:33;;;;;;;18.15;13.55;;;18.20;74.40;;;;;;5000866;28;20038;-69
2021/09/08 09:04:06;;;;;;;16.58;13.90;;;18.30;74.00;;;;;;4999310;28;20519;-70
2021/09/08 09:06:34;;;;;;;16.88;13.95;;;18.40;74.10;;;;;;4999995;28;20627;-69
2021/09/08 09:09:05;;;;;;;16.30;13.45;;;18.50;73.90;;;;;;4999623;28;20041;-69
2021/09/08 09:11:31;;;;;;;16.55;13.90;;;18.50;73.60;;;;;;4999941;28;20076;-69
2021/09/08 09:13:57;;;;;;;17.58;13.45;;;18.60;73.20;;;;;;4999322;28;20584;-69
2021/09/08 09:16:26;;;;;;;18.00;13.43;;;18.70;74.10;;;;;;4999756;28;20124;-70
2021/09/08 09:18:52;;;;;;;19.02;14.82;;;18.80;72.90;;;;;;5000251;28;20046;-69
2021/09/08 09:21:18;;;;;;;17.40;13.75;;;18.90;72.50;;;;;;5000475;28;20037;-69
2021/09/08 09:23:50;;;;;;;15.88;12.85;;;18.90;72.30;;;;;;4999827;28;20038;-69
2021/09/08 09:26:31;;;;;;;14.85;12.45;;;19.00;71.90;;;;;;4999700;28;20582;-69
2021/09/08 09:29:20;;;;;;;16.38;11.88;;;19.10;71.80;;;;;;4999056;28;20042;-69
2021/09/08 09:31:51;;;;;;;19.02;12.95;;;19.20;71.40;;;;;;4999240;28;20045;-68
2021/09/08 09:34:17;;;;;;;15.25;12.80;;;19.30;71.40;;;;;;4999316;28;20034;-70
2021/09/08 09:36:42;;;;;;;16.38;13.30;;;19.40;71.30;;;;;;4999226;28;20515;-69
2021/09/08 09:39:08;;;;;;;14.55;11.40;;;19.50;71.20;;;;;;4997710;28;20480;-69
2021/09/08 09:41:35;;;;;;;14.43;12.15;;;19.60;70.90;;;;;;5000621;28;20041;-69
2021/09/08 09:44:15;;;;;;;17.80;11.35;;;19.70;70.90;;;;;;4999743;28;20065;-69
2021/09/08 09:46:43;;;;;;;15.48;12.55;;;19.70;70.70;;;;;;4998519;28;20044;-70
2021/09/08 09:49:10;;;;;;;15.82;12.18;;;19.80;70.60;;;;;;4999262;28;20401;-69
2021/09/08 09:51:36;;;;;;;16.05;11.98;;;19.90;70.60;;;;;;4999320;28;20054;-69
2021/09/08 09:54:02;;;;;;;14.38;11.27;;;20.00;71.40;;;;;;4998690;28;20037;-68
2021/09/08 09:56:27;;;;;;;12.27;10.68;;;20.20;70.10;;;;;;4998940;28;20040;-68
2021/09/08 09:58:53;;;;;;;19.67;10.77;;;20.30;69.80;;;;;;4998980;28;20401;-68
2021/09/08 10:01:19;;;;;;;13.07;10.68;;;20.40;69.70;;;;;;4998967;28;20034;-69
2021/09/08 10:03:46;;;;;;;12.07;9.60;;;20.50;69.60;;;;;;4995469;28;20308;-69
2021/09/08 10:06:13;;;;;;;13.40;10.15;;;20.60;69.30;;;;;;4998268;28;20039;-69
2021/09/08 10:08:46;;;;;;;10.90;9.70;;;20.70;68.80;;;;;;5003164;28;20457;-70
2021/09/08 10:11:21;;;;;;;12.02;10.15;;;20.80;68.10;;;;;;5003578;28;20066;-69
2021/09/08 10:13:55;;;;;;;10.52;9.07;;;20.90;68.40;;;;;;5002350;28;20532;-70
2021/09/08 10:16:22;;;;;;;11.33;9.33;;;21.00;67.80;;;;;;5002998;28;20431;-69
2021/09/08 10:18:48;;;;;;;12.25;8.23;;;21.20;67.80;;;;;;5002236;28;20254;-69
2021/09/08 10:21:19;;;;;;;14.73;9.50;;;21.20;67.40;;;;;;5003979;28;20501;-70
2021/09/08 10:23:54;;;;;;;15.38;9.52;;;21.40;67.10;;;;;;5004089;28;20065;-69
2021/09/08 10:26:23;;;;;;;12.77;9.15;;;21.50;65.90;;;;;;5002858;28;20061;-70
2021/09/08 10:28:48;;;;;;;11.10;9.00;;;21.50;66.30;;;;;;5003107;28;20042;-70
2021/09/08 10:31:14;;;;;;;13.18;9.13;;;21.60;65.80;;;;;;4996751;28;20039;-70
2021/09/08 10:33:42;;;;;;;10.63;8.20;;;21.70;66.20;;;;;;4982538;28;20039;-70
2021/09/08 10:36:13;;;;;;;8.75;7.82;;;21.80;65.70;;;;;;4983121;28;20031;-69
2021/09/08 10:38:40;;;;;;;9.48;8.48;;;21.80;65.00;;;;;;4983065;28;20073;-70
2021/09/08 10:41:08;;;;;;;11.48;7.85;;;21.90;64.80;;;;;;4983749;28;20497;-69
2021/09/08 10:43:37;;;;;;;7.97;7.18;;;22.00;64.80;;;;;;4984002;28;20038;-70
2021/09/08 10:46:04;;;;;;;9.40;7.30;;;22.10;64.60;;;;;;4984871;28;20026;-68
2021/09/08 10:48:39;;;;;;;10.55;8.60;;;22.20;64.70;;;;;;5000899;28;20047;-69
2021/09/08 10:51:09;;;;;;;11.18;7.82;;;22.30;63.60;;;;;;4981415;28;20041;-70
2021/09/08 10:53:36;;;;;;;9.77;7.78;;;22.30;63.40;;;;;;4992093;28;20322;-70
2021/09/08 10:56:03;;;;;;;11.07;7.90;;;22.50;63.30;;;;;;4994476;28;20038;-70
2021/09/08 10:58:57;;;;;;;10.70;7.63;;;22.50;63.30;;;;;;4981194;28;20085;-70
2021/09/08 11:01:24;;;;;;;9.10;7.22;;;22.60;62.70;;;;;;4983005;28;20034;-69
2021/09/08 11:03:51;;;;;;;7.70;6.97;;;22.70;63.10;;;;;;4982363;28;20040;-70
2021/09/08 11:06:17;;;;;;;9.98;8.30;;;22.70;62.70;;;;;;4983200;28;20030;-69
2021/09/08 11:08:44;;;;;;;10.05;8.63;;;22.80;62.50;;;;;;4982352;28;20042;-70
2021/09/08 11:11:11;;;;;;;10.48;8.15;;;22.90;62.10;;;;;;4982419;28;20039;-72
2021/09/08 11:13:38;;;;;;;17.50;7.63;;;22.90;62.20;;;;;;4981547;28;20057;-70
2021/09/08 11:16:17;;;;;;;8.07;7.28;;;23.00;62.10;;;;;;4982796;28;20498;-70
2021/09/08 11:18:43;;;;;;;9.25;7.45;;;23.10;61.20;;;;;;4981532;28;20080;-69
2021/09/08 11:21:08;;;;;;;7.45;6.22;;;23.20;61.30;;;;;;4982853;28;20026;-69
2021/09/08 11:23:34;;;;;;;7.63;6.55;;;23.20;61.20;;;;;;4982894;28;20042;-70
2021/09/08 11:26:11;;;;;;;7.60;6.88;;;23.30;61.20;;;;;;4982838;28;20046;-70
2021/09/08 11:28:38;;;;;;;9.48;6.22;;;23.30;59.90;;;;;;4982538;28;20030;-70
2021/09/08 11:31:15;;;;;;;21.73;6.65;;;23.40;60.70;;;;;;4981976;28;20537;-69
2021/09/08 11:33:41;;;;;;;7.13;6.05;;;23.50;60.60;;;;;;4983187;28;20054;-69
2021/09/08 11:36:19;;;;;;;7.00;6.28;;;23.50;61.10;;;;;;4982545;28;20062;-70
2021/09/08 11:38:56;;;;;;;10.00;6.40;;;23.70;59.60;;;;;;4982140;28;20473;-69
2021/09/08 11:41:21;;;;;;;8.32;6.13;;;23.80;59.80;;;;;;4982865;28;20117;-68
2021/09/08 11:43:50;;;;;;;7.18;6.47;;;23.80;59.90;;;;;;4981732;28;20115;-70
2021/09/08 11:46:21;;;;;;;7.85;6.50;;;23.90;59.40;;;;;;4982193;28;20061;-70
2021/09/08 11:48:52;;;;;;;8.63;6.50;;;24.00;58.60;;;;;;4980724;28;20062;-70
2021/09/08 11:51:23;;;;;;;6.78;6.10;;;24.10;58.60;;;;;;4985040;28;20462;-70
2021/09/08 11:53:53;;;;;;;6.35;5.72;;;24.10;58.70;;;;;;4981742;28;20105;-70
2021/09/08 11:56:24;;;;;;;6.38;5.68;;;24.20;58.50;;;;;;4982155;28;20035;-70
2021/09/08 11:58:52;;;;;;;8.35;6.43;;;24.20;58.80;;;;;;4981847;28;20050;-70
2021/09/08 12:01:18;;;;;;;6.18;5.57;;;24.20;58.50;;;;;;4983135;28;20121;-70
2021/09/08 12:03:47;;;;;;;7.00;6.18;;;24.30;58.60;;;;;;4985756;28;20521;-70
2021/09/08 12:06:17;;;;;;;8.55;6.72;;;24.40;58.30;;;;;;4981889;28;20121;-70
2021/09/08 12:08:57;;;;;;;7.38;6.30;;;24.40;58.00;;;;;;4981516;28;20093;-69
2021/09/08 12:11:54;;;;;;;10.52;6.38;;;24.40;57.10;;;;;;4980521;28;22295;-70
2021/09/08 12:14:49;;;;;;;7.43;6.35;;;24.40;56.80;;;;;;4981627;28;20038;-70
2021/09/08 12:17:27;;;;;;;7.68;5.80;;;24.50;57.30;;;;;;4968755;28;20081;-69
2021/09/08 12:20:07;;;;;;;6.70;5.85;;;24.50;57.30;;;;;;4981385;28;20034;-70
2021/09/08 12:22:38;;;;;;;6.80;6.10;;;24.50;56.90;;;;;;4981229;28;20038;-70
2021/09/08 12:25:16;;;;;;;8.20;6.65;;;24.50;57.10;;;;;;4982742;28;20034;-71
2021/09/08 12:27:47;;;;;;;7.13;6.43;;;24.60;56.50;;;;;;4983446;28;20531;-69
2021/09/08 12:30:18;;;;;;;6.70;5.75;;;24.60;56.40;;;;;;4983554;28;20049;-70